Ashford, WA (98304)

2:41 PM PDT on August 29, 2014 (GMT -0700)
Mineral Creek Rd | Change Station
CLOSE
Current Station
Personal Weather Station
Location: Mineral, WA
Elevation: 1411 ft
Nearby Weather Stations

Elev 1411 ft 46.72 °N, 122.15 °W | Updated 15 seconds ago

Overcast
Overcast
66.7 °F
Feels Like 66.7 °F
N
0.0
Wind Variable Wind from SE
Gusts 0.0 mph

Today
High -- | Low -- °F
--% Chance of Precip.
Yesterday
High -- | Low -- °F
Precip. -- in
6:23 AM 7:52 PM
Waxing Crescent, 16% visible
Pressure 30.01 in
Visibility 10.0 miles
Clouds Mostly Cloudy 6000 ft
Mostly Cloudy 10000 ft
Dew Point 55 °F
Humidity 67%
Rainfall 0.00 in
Snow Depth 0 in
UV 4 out of 12
Pollen 2.90 out of 12
Air Quality Not available.
Flu Activity Not available.
METAR KTCM 292058Z AUTO VRB02KT 10SM BKN060 BKN100 21/12 A3000 RMK AO2 SLP162 T02060117 50000 $

More Conditions Fewer Conditions

Pressure 30.01 in
Visibility 10.0 miles
Clouds Mostly Cloudy 6000 ft
Mostly Cloudy 10000 ft
Dew Point 55 °F
Humidity 67%
Rainfall 0.00 in
Snow Depth 0 in
UV 4 out of 12
Pollen 2.90 out of 12
Air Quality Not available.
Flu Activity Not available.
METAR KTCM 292058Z AUTO VRB02KT 10SM BKN060 BKN100 21/12 A3000 RMK AO2 SLP162 T02060117 50000 $

More Conditions Fewer Conditions

10-Day Weather Forecast

Almanac

Astronomy

Aug. 29, 2014 Rise Set
Actual Time 6:23 AM PDT 7:52 PM PDT
Civil Twilight 5:52 AM PDT 8:24 PM PDT
Nautical Twilight 5:13 AM PDT 9:02 PM PDT
Astronomical Twilight 4:32 AM PDT 9:43 PM PDT
Moon 10:35 AM PDT 9:35 PM PDT
Length of Visible Light 14h 31m
Length of Day
13h 28m
Tomorrow will be 3m 11s shorter.
Waxing Crescent, 16% of the Moon is Illuminated
Today
Waxing Crescent
Sep 2
First Quarter
Sep 8
Full
Sep 15
Last Quarter
Sep 24
New

Today's Extremes

State Highs State Lows

Community

WunderPhotos

Upload Photos

1,748,349 photos uploaded!

Nearby

Snow Depth

Station Depth Elevation
Burnt Mountain 0 in 4200 ft
Morse Lake 0 in 5400 ft
Lone Pine 0 in 3800 ft
Swift Creek 0 in 3770 ft
June Lake 0 in 3340 ft

Earthquake Activity

City Distance Mag. Time & Date
No recent earthquake activity has been reported nearby.
Minimum magnitude displayed is 2.5.

Coastal Water Temperatures

Place Temperature
No Stations Reporting

Nearby Weather Stations